Time;durP1;ratioP1;P1;durP2;ratioP2;P2;SDS_P1;SDS_P2;PMS_P1;PMS_P2;Temp;Humidity;BMP_temperature;BMP_pressure;BME280_temperature;BME280_humidity;BME280_pressure;Samples;Min_cycle;Max_cycle;Signal;HPM_P1;HPM_P2
2023/06/22 00:00:30;;;;;;;8.75;6.85;;;;;;;;;;7303874;19;141806;-75
2023/06/22 00:02:58;;;;;;;8.80;6.90;;;;;;;;;;7303932;19;140566;-75
2023/06/22 00:05:25;;;;;;;8.38;6.55;;;;;;;;;;7302989;19;140487;-75
2023/06/22 00:07:53;;;;;;;8.00;6.40;;;;;;;;;;7302195;19;140514;-75
2023/06/22 00:10:20;;;;;;;8.15;6.97;;;;;;;;;;7305544;19;141811;-75
2023/06/22 00:12:47;;;;;;;7.97;6.85;;;;;;;;;;7301725;19;140576;-75
2023/06/22 00:15:14;;;;;;;7.72;6.80;;;;;;;;;;7303433;19;140668;-75
2023/06/22 00:17:42;;;;;;;8.13;6.55;;;;;;;;;;7302701;19;142291;-75
2023/06/22 00:20:10;;;;;;;8.52;6.90;;;;;;;;;;7302986;19;141410;-75
2023/06/22 00:22:40;;;;;;;8.98;7.00;;;;;;;;;;7302998;19;141154;-75
2023/06/22 00:25:07;;;;;;;7.65;6.55;;;;;;;;;;7303571;19;140615;-75
2023/06/22 00:27:35;;;;;;;7.32;6.57;;;;;;;;;;7302775;19;141791;-75
2023/06/22 00:30:03;;;;;;;8.98;6.30;;;;;;;;;;7302136;19;142035;-75
2023/06/22 00:32:30;;;;;;;8.02;6.05;;;;;;;;;;7302989;19;140703;-75
2023/06/22 00:35:00;;;;;;;8.82;6.82;;;;;;;;;;7301887;19;140759;-75
2023/06/22 00:37:29;;;;;;;8.63;6.40;;;;;;;;;;7301272;19;142102;-75
2023/06/22 00:39:56;;;;;;;7.70;6.63;;;;;;;;;;7302655;19;142281;-75
2023/06/22 00:42:24;;;;;;;10.35;6.13;;;;;;;;;;7302617;19;140827;-75
2023/06/22 00:44:51;;;;;;;8.07;6.20;;;;;;;;;;7302416;19;140557;-75
2023/06/22 00:47:19;;;;;;;7.72;6.13;;;;;;;;;;7302118;19;142028;-75
2023/06/22 00:49:48;;;;;;;10.43;6.70;;;;;;;;;;7301552;19;140650;-75
2023/06/22 00:52:20;;;;;;;9.35;6.03;;;;;;;;;;7300980;19;140543;-76
2023/06/22 00:54:48;;;;;;;7.40;5.75;;;;;;;;;;7301943;19;140605;-75
2023/06/22 00:57:17;;;;;;;7.57;5.68;;;;;;;;;;7301422;19;140549;-76
2023/06/22 00:59:45;;;;;;;7.97;6.13;;;;;;;;;;7300945;19;142971;-75
2023/06/22 01:02:13;;;;;;;6.75;5.75;;;;;;;;;;7301455;19;140652;-75
2023/06/22 01:04:40;;;;;;;6.80;5.65;;;;;;;;;;7301363;19;140482;-76
2023/06/22 01:07:34;;;;;;;6.07;5.30;;;;;;;;;;7301012;19;142160;-76
2023/06/22 01:10:10;;;;;;;7.15;5.70;;;;;;;;;;7301010;19;141930;-75
2023/06/22 01:12:45;;;;;;;6.30;5.38;;;;;;;;;;7300944;19;140787;-75
2023/06/22 01:15:27;;;;;;;6.72;5.45;;;;;;;;;;7301310;19;140518;-75
2023/06/22 01:17:58;;;;;;;6.47;5.75;;;;;;;;;;7298684;19;140627;-75
2023/06/22 01:20:26;;;;;;;;;;;;;;;;;;7301318;19;141313;-75
2023/06/22 01:23:16;;;;;;;6.55;5.63;;;;;;;;;;7300282;19;145343;-76
2023/06/22 01:25:53;;;;;;;5.90;5.30;;;;;;;;;;7300929;19;140820;-75
2023/06/22 01:28:42;;;;;;;6.18;5.38;;;;;;;;;;7300604;19;141296;-75
2023/06/22 01:31:11;;;;;;;6.97;5.35;;;;;;;;;;7300937;19;142585;-75
2023/06/22 01:33:42;;;;;;;6.83;5.30;;;;;;;;;;7300766;19;140746;-75
2023/06/22 01:36:10;;;;;;;6.88;5.32;;;;;;;;;;7301344;19;140601;-75
2023/06/22 01:38:39;;;;;;;5.38;4.68;;;;;;;;;;7299662;19;142319;-76
2023/06/22 01:41:06;;;;;;;6.38;5.45;;;;;;;;;;7299690;19;141957;-75
2023/06/22 01:43:34;;;;;;;5.60;5.00;;;;;;;;;;7301135;19;140475;-75
2023/06/22 01:46:03;;;;;;;6.55;5.43;;;;;;;;;;7300611;19;140563;-76
2023/06/22 01:48:31;;;;;;;6.15;5.07;;;;;;;;;;7299576;19;141996;-75
2023/06/22 01:50:58;;;;;;;5.30;4.80;;;;;;;;;;7299822;19;142211;-75
2023/06/22 01:53:25;;;;;;;6.50;5.38;;;;;;;;;;7299843;19;140736;-76
2023/06/22 01:55:52;;;;;;;6.60;5.22;;;;;;;;;;7299932;19;140596;-75
2023/06/22 01:58:23;;;;;;;5.82;4.72;;;;;;;;;;7299912;19;141986;-74
2023/06/22 02:01:03;;;;;;;6.13;4.78;;;;;;;;;;7300118;19;142016;-75
2023/06/22 02:03:35;;;;;;;5.78;4.90;;;;;;;;;;7298184;19;141125;-75
2023/06/22 02:06:06;;;;;;;5.80;4.72;;;;;;;;;;7299877;19;140597;-75
2023/06/22 02:08:50;;;;;;;6.30;4.65;;;;;;;;;;7298587;19;141542;-75
2023/06/22 02:11:21;;;;;;;5.20;4.53;;;;;;;;;;7299731;19;141741;-75
2023/06/22 02:13:48;;;;;;;;;;;;;;;;;;7300664;19;140469;-75
2023/06/22 02:16:17;;;;;;;5.75;4.85;;;;;;;;;;7299147;19;144336;-75
2023/06/22 02:18:51;;;;;;;5.80;4.75;;;;;;;;;;7299271;19;141058;-75
2023/06/22 02:21:20;;;;;;;5.65;4.53;;;;;;;;;;7299501;19;142711;-75
2023/06/22 02:23:47;;;;;;;5.65;4.68;;;;;;;;;;7298388;19;140651;-75
2023/06/22 02:26:17;;;;;;;6.45;4.35;;;;;;;;;;7299471;19;140530;-75
2023/06/22 02:28:45;;;;;;;4.85;4.30;;;;;;;;;;7299511;19;141132;-75
2023/06/22 02:31:13;;;;;;;5.03;4.38;;;;;;;;;;7305950;19;142809;-75
2023/06/22 02:33:40;;;;;;;5.47;4.10;;;;;;;;;;7305444;19;140541;-76
2023/06/22 02:36:08;;;;;;;5.75;4.45;;;;;;;;;;7308728;19;140730;-75
2023/06/22 02:38:36;;;;;;;5.63;4.40;;;;;;;;;;7304788;19;141936;-75
2023/06/22 02:41:03;;;;;;;4.95;4.22;;;;;;;;;;7305796;19;142066;-76
2023/06/22 02:43:30;;;;;;;5.32;4.70;;;;;;;;;;7305791;19;140586;-76
2023/06/22 02:45:58;;;;;;;5.45;4.32;;;;;;;;;;7306267;19;140452;-75
2023/06/22 02:48:25;;;;;;;4.47;4.05;;;;;;;;;;7306419;19;141287;-75
2023/06/22 02:50:52;;;;;;;5.30;4.20;;;;;;;;;;7304000;19;141824;-75
2023/06/22 02:53:20;;;;;;;5.55;4.10;;;;;;;;;;7305437;19;140415;-76
2023/06/22 02:55:48;;;;;;;4.82;4.13;;;;;;;;;;7304205;19;140735;-75
2023/06/22 02:58:15;;;;;;;5.75;4.35;;;;;;;;;;7303786;19;140679;-76
2023/06/22 03:00:42;;;;;;;5.07;4.10;;;;;;;;;;7304998;19;141895;-76
2023/06/22 03:03:09;;;;;;;4.57;4.18;;;;;;;;;;7305675;19;140663;-75
2023/06/22 03:05:37;;;;;;;4.45;4.03;;;;;;;;;;7305280;19;141458;-75
2023/06/22 03:08:04;;;;;;;4.65;4.18;;;;;;;;;;7304368;19;142265;-75
2023/06/22 03:10:31;;;;;;;5.20;3.88;;;;;;;;;;7305094;19;141744;-76
2023/06/22 03:12:59;;;;;;;4.40;4.00;;;;;;;;;;7305178;19;140557;-75
2023/06/22 03:15:29;;;;;;;5.72;4.30;;;;;;;;;;7305197;19;140507;-76
2023/06/22 03:17:56;;;;;;;5.90;4.05;;;;;;;;;;7304970;19;141297;-76
2023/06/22 03:20:24;;;;;;;5.78;4.22;;;;;;;;;;7303811;19;141860;-76
2023/06/22 03:22:52;;;;;;;5.13;4.00;;;;;;;;;;7305056;19;140906;-76
2023/06/22 03:25:19;;;;;;;5.45;4.03;;;;;;;;;;7304363;19;140572;-75
2023/06/22 03:27:48;;;;;;;4.45;3.88;;;;;;;;;;7303759;19;140818;-76
2023/06/22 03:30:15;;;;;;;4.78;4.13;;;;;;;;;;7304592;19;142562;-75
2023/06/22 03:32:43;;;;;;;4.57;3.95;;;;;;;;;;7304105;19;140325;-75
2023/06/22 03:35:13;;;;;;;4.80;4.30;;;;;;;;;;7305186;19;140423;-75
2023/06/22 03:37:40;;;;;;;5.15;4.10;;;;;;;;;;7304311;19;141362;-75
2023/06/22 03:40:08;;;;;;;4.57;3.97;;;;;;;;;;7302405;19;142186;-76
2023/06/22 03:42:38;;;;;;;5.35;3.90;;;;;;;;;;7302608;19;140641;-76
2023/06/22 03:45:06;;;;;;;4.93;3.75;;;;;;;;;;7303963;19;140498;-76
2023/06/22 03:47:33;;;;;;;4.78;4.28;;;;;;;;;;7303707;19;141393;-76
2023/06/22 03:50:03;;;;;;;4.20;3.80;;;;;;;;;;7303794;19;141167;-76
2023/06/22 03:52:31;;;;;;;4.70;4.05;;;;;;;;;;7304065;19;140892;-76
2023/06/22 03:54:58;;;;;;;3.58;3.28;;;;;;;;;;7302714;19;140437;-76
2023/06/22 03:57:25;;;;;;;4.07;3.65;;;;;;;;;;7303500;19;141409;-76
2023/06/22 03:59:56;;;;;;;4.28;3.75;;;;;;;;;;7303405;19;141800;-76
2023/06/22 04:02:24;;;;;;;4.65;4.20;;;;;;;;;;7303618;19;140498;-76
2023/06/22 04:04:51;;;;;;;4.15;3.60;;;;;;;;;;7303700;19;140496;-75
2023/06/22 04:07:18;;;;;;;3.85;3.35;;;;;;;;;;7301370;19;141669;-76
2023/06/22 04:09:45;;;;;;;6.20;3.70;;;;;;;;;;7302274;19;142120;-76
2023/06/22 04:12:13;;;;;;;4.53;3.45;;;;;;;;;;7303591;19;140734;-75
2023/06/22 04:14:40;;;;;;;4.30;3.90;;;;;;;;;;7303057;19;140558;-76
2023/06/22 04:17:07;;;;;;;3.95;3.55;;;;;;;;;;7302929;19;141396;-76
2023/06/22 04:19:34;;;;;;;3.83;3.50;;;;;;;;;;7302312;19;141928;-75
2023/06/22 04:22:01;;;;;;;4.28;3.72;;;;;;;;;;7302286;19;140737;-75
2023/06/22 04:24:29;;;;;;;4.78;3.75;;;;;;;;;;7302171;19;140500;-76
2023/06/22 04:26:56;;;;;;;4.80;3.53;;;;;;;;;;7302760;19;140810;-76
2023/06/22 04:29:28;;;;;;;3.97;3.53;;;;;;;;;;7301895;19;141916;-76
2023/06/22 04:32:05;;;;;;;3.85;3.45;;;;;;;;;;7302934;19;140390;-75
2023/06/22 04:34:32;;;;;;;3.80;3.38;;;;;;;;;;7303232;19;141162;-75
2023/06/22 04:36:59;;;;;;;4.40;3.97;;;;;;;;;;7302003;19;142000;-76
2023/06/22 04:39:27;;;;;;;3.90;3.50;;;;;;;;;;7301629;19;142572;-76
2023/06/22 04:42:00;;;;;;;4.40;3.55;;;;;;;;;;7302802;19;140919;-76
2023/06/22 04:44:27;;;;;;;3.50;3.20;;;;;;;;;;7302196;19;140419;-75
2023/06/22 04:47:03;;;;;;;4.15;3.20;;;;;;;;;;7301642;19;141263;-75
2023/06/22 04:49:34;;;;;;;4.32;3.20;;;;;;;;;;7301694;19;142742;-75
2023/06/22 04:52:04;;;;;;;3.42;3.13;;;;;;;;;;7301241;19;140555;-75
2023/06/22 04:54:32;;;;;;;3.80;3.10;;;;;;;;;;7301487;19;140687;-76
2023/06/22 04:57:01;;;;;;;5.78;2.95;;;;;;;;;;7297861;19;141125;-80
2023/06/22 04:59:30;;;;;;;3.67;3.28;;;;;;;;;;7301673;19;141885;-79
2023/06/22 05:01:59;;;;;;;3.35;3.03;;;;;;;;;;7302044;19;140550;-79
2023/06/22 05:04:31;;;;;;;4.13;3.30;;;;;;;;;;7301286;19;140483;-79
2023/06/22 05:07:00;;;;;;;3.30;3.00;;;;;;;;;;7301518;19;141233;-79
2023/06/22 05:09:28;;;;;;;3.42;3.10;;;;;;;;;;7300465;19;141105;-79
2023/06/22 05:11:59;;;;;;;6.20;3.20;;;;;;;;;;7301851;19;141181;-79
2023/06/22 05:14:26;;;;;;;3.83;3.10;;;;;;;;;;7300255;19;140632;-80
2023/06/22 05:16:54;;;;;;;3.10;2.80;;;;;;;;;;7301280;19;142207;-80
2023/06/22 05:19:21;;;;;;;3.15;2.85;;;;;;;;;;7300909;19;142669;-80
2023/06/22 05:21:48;;;;;;;3.10;2.80;;;;;;;;;;7301163;19;140354;-80
2023/06/22 05:24:15;;;;;;;3.38;2.53;;;;;;;;;;7300175;19;140470;-80
2023/06/22 05:26:42;;;;;;;3.20;2.90;;;;;;;;;;7301119;19;140571;-80
2023/06/22 05:29:10;;;;;;;3.28;2.92;;;;;;;;;;7300513;19;142238;-80
2023/06/22 05:31:37;;;;;;;3.75;2.70;;;;;;;;;;7300425;19;140700;-80
2023/06/22 05:34:04;;;;;;;4.07;3.00;;;;;;;;;;7300719;19;140441;-80
2023/06/22 05:36:32;;;;;;;2.80;2.60;;;;;;;;;;7300555;19;142430;-80
2023/06/22 05:38:59;;;;;;;2.75;2.55;;;;;;;;;;7299559;19;142859;-80
2023/06/22 05:41:26;;;;;;;3.47;3.17;;;;;;;;;;7300659;19;140555;-80
2023/06/22 05:43:53;;;;;;;2.92;2.63;;;;;;;;;;7300681;19;140512;-79
2023/06/22 05:46:20;;;;;;;3.38;2.83;;;;;;;;;;7299932;19;142011;-80
2023/06/22 05:48:48;;;;;;;2.97;2.70;;;;;;;;;;7299460;19;142073;-80
2023/06/22 05:51:15;;;;;;;3.13;2.78;;;;;;;;;;7300393;19;140465;-80
2023/06/22 05:53:44;;;;;;;2.92;2.60;;;;;;;;;;7300002;19;140720;-80
2023/06/22 05:56:11;;;;;;;2.92;2.40;;;;;;;;;;7299383;19;141315;-79
2023/06/22 05:58:38;;;;;;;2.85;2.50;;;;;;;;;;7299687;19;141041;-80
2023/06/22 06:01:06;;;;;;;2.83;2.38;;;;;;;;;;7299605;19;140470;-80
2023/06/22 06:03:33;;;;;;;3.00;2.60;;;;;;;;;;7300316;19;140563;-80
2023/06/22 06:06:02;;;;;;;2.63;2.42;;;;;;;;;;7306745;19;141701;-80
2023/06/22 06:08:29;;;;;;;2.38;2.17;;;;;;;;;;7306612;19;142069;-81
2023/06/22 06:10:57;;;;;;;2.55;2.35;;;;;;;;;;7306874;19;140527;-80
2023/06/22 06:13:24;;;;;;;2.60;2.40;;;;;;;;;;7305167;19;140483;-80
2023/06/22 06:15:54;;;;;;;2.65;2.45;;;;;;;;;;7306689;19;141548;-80
2023/06/22 06:21:57;;;;;;;3.45;2.55;;;;;;;;;;7303982;19;140794;-80
2023/06/22 06:24:24;;;;;;;2.60;2.40;;;;;;;;;;7306145;19;141033;-80
2023/06/22 06:26:52;;;;;;;3.10;2.30;;;;;;;;;;7306721;19;140771;-80
2023/06/22 06:29:19;;;;;;;2.45;2.25;;;;;;;;;;7305743;19;142966;-80
2023/06/22 06:31:46;;;;;;;2.25;2.05;;;;;;;;;;7306359;19;140527;-80
2023/06/22 06:34:13;;;;;;;3.45;2.40;;;;;;;;;;7306159;19;140509;-80
2023/06/22 06:36:41;;;;;;;2.78;2.13;;;;;;;;;;7305951;19;142613;-80
2023/06/22 06:39:09;;;;;;;2.75;2.40;;;;;;;;;;7305615;19;141817;-80
2023/06/22 06:41:36;;;;;;;2.85;2.30;;;;;;;;;;7306347;19;140618;-80
2023/06/22 06:44:04;;;;;;;2.10;1.90;;;;;;;;;;7306501;19;140564;-80
2023/06/22 06:46:31;;;;;;;2.60;2.40;;;;;;;;;;7305424;19;141559;-80
2023/06/22 06:48:58;;;;;;;2.30;2.10;;;;;;;;;;7305347;19;142777;-79
2023/06/22 06:51:26;;;;;;;2.47;2.03;;;;;;;;;;7304504;19;140554;-80
2023/06/22 06:53:53;;;;;;;2.42;2.22;;;;;;;;;;7304380;19;140664;-80
2023/06/22 06:56:20;;;;;;;2.42;2.22;;;;;;;;;;7304879;19;141208;-80
2023/06/22 06:58:50;;;;;;;2.38;2.17;;;;;;;;;;7306165;19;140911;-79
2023/06/22 07:01:19;;;;;;;2.20;2.00;;;;;;;;;;7305427;19;141341;-80
2023/06/22 07:03:48;;;;;;;2.40;2.20;;;;;;;;;;7304698;19;140681;-79
2023/06/22 07:06:16;;;;;;;2.40;2.20;;;;;;;;;;7305758;19;140824;-79
2023/06/22 07:08:43;;;;;;;2.35;2.15;;;;;;;;;;7304774;19;142134;-79
2023/06/22 07:11:10;;;;;;;2.20;2.00;;;;;;;;;;7304120;19;140791;-79
2023/06/22 07:13:38;;;;;;;2.03;1.83;;;;;;;;;;7305034;19;140614;-79
2023/06/22 07:16:05;;;;;;;2.20;2.00;;;;;;;;;;7300418;19;141525;-79
2023/06/22 07:18:32;;;;;;;2.10;1.90;;;;;;;;;;7302992;19;142730;-79
2023/06/22 07:21:00;;;;;;;2.17;2.00;;;;;;;;;;7304855;19;140339;-79
2023/06/22 07:23:27;;;;;;;2.10;1.90;;;;;;;;;;7304448;19;140446;-79
2023/06/22 07:25:57;;;;;;;2.08;1.90;;;;;;;;;;7303767;19;142329;-79
2023/06/22 07:28:24;;;;;;;2.08;1.88;;;;;;;;;;7304535;19;141995;-79
2023/06/22 07:30:51;;;;;;;2.28;2.08;;;;;;;;;;7304968;19;140500;-80
2023/06/22 07:33:19;;;;;;;2.05;1.90;;;;;;;;;;7304058;19;140606;-79
2023/06/22 07:35:47;;;;;;;2.30;2.10;;;;;;;;;;7302735;19;141282;-79
2023/06/22 07:38:15;;;;;;;1.92;1.83;;;;;;;;;;7303987;19;142783;-79
2023/06/22 07:40:43;;;;;;;1.80;1.60;;;;;;;;;;7303988;19;141319;-80
2023/06/22 07:43:10;;;;;;;2.10;1.90;;;;;;;;;;7302987;19;140556;-80
2023/06/22 07:45:39;;;;;;;1.92;1.80;;;;;;;;;;7303973;19;141325;-79
2023/06/22 07:48:07;;;;;;;1.90;1.80;;;;;;;;;;7302147;19;143036;-79
2023/06/22 07:50:34;;;;;;;2.00;1.90;;;;;;;;;;7303985;19;140528;-79
2023/06/22 07:53:02;;;;;;;1.92;1.83;;;;;;;;;;7302277;19;140800;-79
2023/06/22 07:55:29;;;;;;;2.30;1.80;;;;;;;;;;7302618;19;141598;-80
2023/06/22 07:57:57;;;;;;;2.10;1.90;;;;;;;;;;7303743;19;141876;-79
2023/06/22 08:00:24;;;;;;;2.47;1.90;;;;;;;;;;7303147;19;140556;-80
2023/06/22 08:02:51;;;;;;;1.90;1.70;;;;;;;;;;7303170;19;140542;-80
2023/06/22 08:05:19;;;;;;;2.05;1.88;;;;;;;;;;7303838;19;140811;-79
2023/06/22 08:07:49;;;;;;;1.70;1.60;;;;;;;;;;7303117;19;141188;-79
2023/06/22 08:10:17;;;;;;;1.80;1.70;;;;;;;;;;7302824;19;140554;-79
2023/06/22 08:12:45;;;;;;;1.98;1.70;;;;;;;;;;7303067;19;140710;-79
2023/06/22 08:15:12;;;;;;;1.83;1.73;;;;;;;;;;7302657;19;142375;-80
2023/06/22 08:17:39;;;;;;;1.70;1.60;;;;;;;;;;7303324;19;140931;-79
2023/06/22 08:20:14;;;;;;;1.63;1.52;;;;;;;;;;7303167;19;140576;-79
2023/06/22 08:22:42;;;;;;;1.80;1.70;;;;;;;;;;7302678;19;140706;-79
2023/06/22 08:25:11;;;;;;;1.85;1.75;;;;;;;;;;7301638;19;141386;-79
2023/06/22 08:27:39;;;;;;;1.70;1.60;;;;;;;;;;7301627;19;142077;-79
2023/06/22 08:30:07;;;;;;;1.60;1.50;;;;;;;;;;7303822;19;140617;-79
2023/06/22 08:32:34;;;;;;;1.73;1.63;;;;;;;;;;7303306;19;140662;-79
2023/06/22 08:35:02;;;;;;;1.63;1.50;;;;;;;;;;7302488;19;140610;-80
2023/06/22 08:37:35;;;;;;;2.08;1.60;;;;;;;;;;7302347;19;142047;-79
2023/06/22 08:40:07;;;;;;;1.67;1.58;;;;;;;;;;7301375;19;140696;-79
2023/06/22 08:42:40;;;;;;;1.90;1.70;;;;;;;;;;7301361;19;140671;-79
2023/06/22 08:45:08;;;;;;;1.75;1.65;;;;;;;;;;7302569;19;141753;-79
2023/06/22 08:47:35;;;;;;;1.60;1.50;;;;;;;;;;7303389;19;140686;-80
2023/06/22 08:50:03;;;;;;;1.40;1.30;;;;;;;;;;7301440;19;140450;-79
2023/06/22 08:52:31;;;;;;;1.98;1.60;;;;;;;;;;7301967;19;140812;-79
2023/06/22 08:54:58;;;;;;;1.60;1.50;;;;;;;;;;7301069;19;142288;-79
2023/06/22 08:57:25;;;;;;;1.58;1.48;;;;;;;;;;7301764;19;141802;-83
2023/06/22 08:59:53;;;;;;;1.50;1.40;;;;;;;;;;7303101;19;140727;-83
2023/06/22 09:02:20;;;;;;;1.50;1.40;;;;;;;;;;7302393;19;140605;-82
2023/06/22 09:04:48;;;;;;;1.67;1.58;;;;;;;;;;7302414;19;141148;-86
2023/06/22 09:07:22;;;;;;;1.95;1.60;;;;;;;;;;7303067;19;140460;-83
2023/06/22 09:09:50;;;;;;;1.80;1.70;;;;;;;;;;7302109;19;140550;-84
2023/06/22 09:12:25;;;;;;;1.80;1.70;;;;;;;;;;7301813;19;140670;-84
2023/06/22 09:14:53;;;;;;;2.30;1.80;;;;;;;;;;7302624;19;141291;-85
2023/06/22 09:17:21;;;;;;;1.80;1.60;;;;;;;;;;7302119;19;142352;-86
2023/06/22 09:19:48;;;;;;;1.70;1.60;;;;;;;;;;7303187;19;140619;-84
2023/06/22 09:22:19;;;;;;;1.52;1.42;;;;;;;;;;7301519;19;140404;-86
2023/06/22 09:24:46;;;;;;;2.10;1.70;;;;;;;;;;7301805;19;142286;-88
2023/06/22 09:27:13;;;;;;;1.48;1.38;;;;;;;;;;7301579;19;140740;-88
2023/06/22 09:29:40;;;;;;;1.60;1.50;;;;;;;;;;7303215;19;140411;-83
2023/06/22 09:32:08;;;;;;;1.63;1.52;;;;;;;;;;7301712;19;140525;-83
2023/06/22 09:34:35;;;;;;;1.73;1.63;;;;;;;;;;7300939;19;141208;-82
2023/06/22 09:37:02;;;;;;;1.88;1.58;;;;;;;;;;7302256;19;141804;-83
2023/06/22 09:39:30;;;;;;;2.33;1.80;;;;;;;;;;7299447;19;140498;-81
2023/06/22 09:42:00;;;;;;;1.90;1.73;;;;;;;;;;7301029;19;140748;-82
2023/06/22 09:44:27;;;;;;;;;;;;;;;;;;7299664;19;140744;-81
2023/06/22 09:46:55;;;;;;;1.65;1.55;;;;;;;;;;7300809;19;152694;-83
2023/06/22 09:49:22;;;;;;;2.20;1.55;;;;;;;;;;7301570;19;140797;-82
2023/06/22 09:52:11;;;;;;;1.60;1.50;;;;;;;;;;7299525;19;140471;-83
2023/06/22 09:54:40;;;;;;;1.88;1.63;;;;;;;;;;7300988;19;141201;-83
2023/06/22 09:57:07;;;;;;;1.55;1.45;;;;;;;;;;7299212;19;142959;-83
2023/06/22 09:59:34;;;;;;;2.05;1.80;;;;;;;;;;7300079;19;140923;-83
2023/06/22 10:02:01;;;;;;;1.85;1.50;;;;;;;;;;7300474;19;140543;-82
2023/06/22 10:04:29;;;;;;;1.75;1.50;;;;;;;;;;7298385;19;141913;-83
2023/06/22 10:06:57;;;;;;;1.60;1.50;;;;;;;;;;7299903;19;143153;-78
2023/06/22 10:09:24;;;;;;;1.70;1.30;;;;;;;;;;7295380;19;140769;-87
2023/06/22 10:17:57;;;;;;;1.83;1.60;;;;;;;;;;7296933;19;141482;-88
2023/06/22 10:20:28;;;;;;;1.70;1.60;;;;;;;;;;7300405;19;140607;-88
2023/06/22 10:22:55;;;;;;;1.83;1.60;;;;;;;;;;7298251;19;140431;-87
2023/06/22 10:25:26;;;;;;;2.00;1.80;;;;;;;;;;7298667;19;140676;-87
2023/06/22 10:27:57;;;;;;;1.70;1.60;;;;;;;;;;7298281;19;143713;-87
2023/06/22 10:30:25;;;;;;;2.40;1.77;;;;;;;;;;7297914;19;140498;-87
2023/06/22 10:32:52;;;;;;;2.78;1.60;;;;;;;;;;7299523;19;141466;-85
2023/06/22 10:35:37;;;;;;;2.00;1.83;;;;;;;;;;7295112;19;140767;-86
2023/06/22 10:38:06;;;;;;;2.10;1.65;;;;;;;;;;7298633;19;141288;-86
2023/06/22 10:40:34;;;;;;;2.58;1.83;;;;;;;;;;7297155;19;140739;-86
2023/06/22 10:43:01;;;;;;;2.83;1.70;;;;;;;;;;7298387;19;140593;-85
2023/06/22 10:45:28;;;;;;;1.92;1.73;;;;;;;;;;7299107;19;140654;-85
2023/06/22 10:47:56;;;;;;;2.13;1.65;;;;;;;;;;7296562;19;142678;-86
2023/06/22 10:50:25;;;;;;;2.15;1.95;;;;;;;;;;7300380;19;140531;-85
2023/06/22 10:52:54;;;;;;;2.58;1.80;;;;;;;;;;7307422;19;140478;-80
2023/06/22 10:55:26;;;;;;;2.55;1.80;;;;;;;;;;7306183;19;140303;-83
2023/06/22 10:58:00;;;;;;;1.90;1.70;;;;;;;;;;7304655;19;142028;-81
2023/06/22 11:00:28;;;;;;;5.72;1.90;;;;;;;;;;7304083;19;141334;-81
2023/06/22 11:03:21;;;;;;;2.72;1.80;;;;;;;;;;7305927;19;140486;-81
2023/06/22 11:05:48;;;;;;;2.95;1.90;;;;;;;;;;7301327;19;141681;-80
2023/06/22 11:08:16;;;;;;;2.28;1.80;;;;;;;;;;7304346;19;141846;-81
2023/06/22 11:10:45;;;;;;;1.88;1.70;;;;;;;;;;7300596;19;141492;-84
2023/06/22 11:13:13;;;;;;;2.63;1.88;;;;;;;;;;7305693;19;140999;-86
2023/06/22 11:18:33;;;;;;;2.17;1.73;;;;;;;;;;7302398;19;140498;-81
2023/06/22 11:21:00;;;;;;;1.88;1.58;;;;;;;;;;7306891;19;140762;-81
2023/06/22 11:26:44;;;;;;;2.80;1.77;;;;;;;;;;7294976;19;142844;-90
2023/06/22 11:32:14;;;;;;;1.70;1.60;;;;;;;;;;7298081;19;140872;-82
2023/06/22 11:34:41;;;;;;;2.45;1.70;;;;;;;;;;7306177;19;140626;-83
2023/06/22 11:37:09;;;;;;;2.60;1.80;;;;;;;;;;7305389;19;143704;-81
2023/06/22 11:39:36;;;;;;;2.25;1.75;;;;;;;;;;7300628;19;142131;-86
2023/06/22 11:48:30;;;;;;;2.55;1.80;;;;;;;;;;7303790;19;140781;-80
2023/06/22 11:54:11;;;;;;;1.77;1.67;;;;;;;;;;7306831;19;140658;-81
2023/06/22 11:56:38;;;;;;;1.83;1.63;;;;;;;;;;7304080;19;140429;-79
2023/06/22 11:59:06;;;;;;;1.98;1.70;;;;;;;;;;7303127;19;140862;-82
2023/06/22 12:01:33;;;;;;;2.00;1.70;;;;;;;;;;7300917;19;142001;-80
2023/06/22 12:04:00;;;;;;;1.90;1.70;;;;;;;;;;7302111;19;140911;-80
2023/06/22 12:06:27;;;;;;;1.88;1.65;;;;;;;;;;7299849;19;140709;-81
2023/06/22 12:08:56;;;;;;;2.13;1.80;;;;;;;;;;7305093;19;140732;-80
2023/06/22 12:11:23;;;;;;;2.03;1.67;;;;;;;;;;7302408;19;141901;-80
2023/06/22 12:13:51;;;;;;;2.33;1.70;;;;;;;;;;7303689;19;140694;-84
2023/06/22 12:16:20;;;;;;;2.47;1.83;;;;;;;;;;7304243;19;140543;-83
2023/06/22 12:18:52;;;;;;;2.90;1.77;;;;;;;;;;7302223;19;140614;-83
2023/06/22 12:21:19;;;;;;;2.53;1.73;;;;;;;;;;7303015;19;142028;-83
2023/06/22 12:30:24;;;;;;;2.45;1.70;;;;;;;;;;7302314;19;141325;-81
2023/06/22 12:42:08;;;;;;;3.75;1.88;;;;;;;;;;7293321;19;144218;-81
2023/06/22 12:47:49;;;;;;;2.60;1.77;;;;;;;;;;7301092;19;140524;-83
2023/06/22 12:50:17;;;;;;;2.22;1.80;;;;;;;;;;7299305;19;140854;-85
2023/06/22 12:59:11;;;;;;;1.98;1.73;;;;;;;;;;7299342;19;140641;-82
2023/06/22 13:01:41;;;;;;;2.22;1.77;;;;;;;;;;7302102;19;140720;-84
2023/06/22 13:04:11;;;;;;;2.35;1.80;;;;;;;;;;7302909;19;142625;-82
2023/06/22 13:06:38;;;;;;;3.03;1.70;;;;;;;;;;7302161;19;141179;-82
2023/06/22 13:09:05;;;;;;;2.65;1.70;;;;;;;;;;7302214;19;140442;-82
2023/06/22 13:11:47;;;;;;;2.13;1.70;;;;;;;;;;7302449;19;140767;-82
2023/06/22 13:14:20;;;;;;;1.98;1.70;;;;;;;;;;7299209;19;140815;-83
2023/06/22 13:16:48;;;;;;;1.70;1.50;;;;;;;;;;7297954;19;142069;-82
2023/06/22 13:19:16;;;;;;;2.35;1.75;;;;;;;;;;7303220;19;140567;-83
2023/06/22 13:21:43;;;;;;;1.88;1.50;;;;;;;;;;7302211;19;140443;-83
2023/06/22 13:24:10;;;;;;;1.65;1.50;;;;;;;;;;7301415;19;142019;-83
2023/06/22 13:26:38;;;;;;;1.90;1.63;;;;;;;;;;7299976;19;142883;-84
2023/06/22 13:29:06;;;;;;;2.58;1.70;;;;;;;;;;7301839;19;140541;-84
2023/06/22 13:31:33;;;;;;;2.65;1.63;;;;;;;;;;7300402;19;140640;-83
2023/06/22 13:34:00;;;;;;;1.50;1.40;;;;;;;;;;7274892;19;142021;-83
2023/06/22 13:36:30;;;;;;;2.28;1.80;;;;;;;;;;7300078;19;141932;-82
2023/06/22 13:38:57;;;;;;;2.25;1.70;;;;;;;;;;7301460;19;140381;-81
2023/06/22 13:41:25;;;;;;;1.85;1.75;;;;;;;;;;7302210;19;140548;-80
2023/06/22 13:43:52;;;;;;;3.05;1.77;;;;;;;;;;7300528;19;141479;-80
2023/06/22 13:46:47;;;;;;;2.08;1.70;;;;;;;;;;7298700;19;142105;-80
2023/06/22 13:49:18;;;;;;;2.30;1.45;;;;;;;;;;7299857;19;141112;-79
2023/06/22 13:51:48;;;;;;;2.80;1.85;;;;;;;;;;7301693;19;140597;-79
2023/06/22 13:54:16;;;;;;;2.00;1.70;;;;;;;;;;7300721;19;142122;-79
2023/06/22 13:56:50;;;;;;;2.75;1.70;;;;;;;;;;7299752;19;140627;-79
2023/06/22 13:59:21;;;;;;;2.28;1.80;;;;;;;;;;7300751;19;140702;-80
2023/06/22 14:01:54;;;;;;;;;;;;;;;;;;7301345;19;140814;-86
2023/06/22 14:04:24;;;;;;;1.85;1.65;;;;;;;;;;7299366;19;141228;-80
2023/06/22 14:06:52;;;;;;;1.80;1.70;;;;;;;;;;7298138;19;142538;-82
2023/06/22 14:09:23;;;;;;;1.80;1.70;;;;;;;;;;7300799;19;140591;-82
2023/06/22 14:11:50;;;;;;;2.20;1.40;;;;;;;;;;7300932;19;140442;-82
2023/06/22 14:14:18;;;;;;;2.90;1.73;;;;;;;;;;7298825;19;142148;-83
2023/06/22 14:16:54;;;;;;;1.77;1.60;;;;;;;;;;7299795;19;142652;-83
2023/06/22 14:19:22;;;;;;;2.05;1.48;;;;;;;;;;7300774;19;140987;-84
2023/06/22 14:21:49;;;;;;;1.58;1.48;;;;;;;;;;7301378;19;140593;-87
2023/06/22 14:24:17;;;;;;;1.80;1.65;;;;;;;;;;7298735;19;140813;-78
2023/06/22 14:26:44;;;;;;;2.58;1.90;;;;;;;;;;7304873;19;142977;-78
2023/06/22 14:29:11;;;;;;;2.17;1.77;;;;;;;;;;7305889;19;140729;-77
2023/06/22 14:31:41;;;;;;;2.67;2.00;;;;;;;;;;7307164;19;140422;-77
2023/06/22 14:34:08;;;;;;;1.80;1.60;;;;;;;;;;7308000;19;143108;-78
2023/06/22 14:36:35;;;;;;;2.10;1.73;;;;;;;;;;7307757;19;141491;-77
2023/06/22 14:39:05;;;;;;;1.73;1.63;;;;;;;;;;7307478;19;140320;-78
2023/06/22 14:41:33;;;;;;;1.80;1.50;;;;;;;;;;7308550;19;140672;-76
2023/06/22 14:44:00;;;;;;;1.80;1.60;;;;;;;;;;7306549;19;142357;-76
2023/06/22 14:46:27;;;;;;;1.55;1.45;;;;;;;;;;7308050;19;142754;-77
2023/06/22 14:48:55;;;;;;;2.05;1.77;;;;;;;;;;7318905;19;140746;-76
2023/06/22 14:51:23;;;;;;;2.55;1.80;;;;;;;;;;7321412;19;140681;-77
2023/06/22 14:53:51;;;;;;;3.03;1.85;;;;;;;;;;7321654;19;142058;-77
2023/06/22 14:56:20;;;;;;;2.22;1.58;;;;;;;;;;7305901;19;142185;-78
2023/06/22 15:01:50;;;;;;;1.77;1.58;;;;;;;;;;7303868;19;140762;-77
2023/06/22 15:04:18;;;;;;;2.30;1.67;;;;;;;;;;7302798;19;142209;-78
2023/06/22 15:06:45;;;;;;;2.08;1.75;;;;;;;;;;7306377;19;141847;-76
2023/06/22 15:11:51;;;;;;;1.55;1.45;;;;;;;;;;7306307;19;140418;-77
2023/06/22 15:14:20;;;;;;;1.92;1.70;;;;;;;;;;7303874;19;141369;-77
2023/06/22 15:16:49;;;;;;;2.55;1.73;;;;;;;;;;7306390;19;142388;-77
2023/06/22 15:19:16;;;;;;;1.80;1.60;;;;;;;;;;7305632;19;140752;-75
2023/06/22 15:21:44;;;;;;;2.05;1.60;;;;;;;;;;7302111;19;140551;-75
2023/06/22 15:24:12;;;;;;;1.60;1.50;;;;;;;;;;7305958;19;142096;-76
2023/06/22 15:26:39;;;;;;;2.00;1.80;;;;;;;;;;7305942;19;141898;-74
2023/06/22 15:29:06;;;;;;;2.83;1.67;;;;;;;;;;7302716;19;140774;-75
2023/06/22 15:31:33;;;;;;;2.20;1.80;;;;;;;;;;7305448;19;140771;-77
2023/06/22 15:34:03;;;;;;;2.45;1.65;;;;;;;;;;7303311;19;142102;-76
2023/06/22 15:36:30;;;;;;;3.05;1.60;;;;;;;;;;7302289;19;142398;-77
2023/06/22 15:38:57;;;;;;;2.03;1.70;;;;;;;;;;7303906;19;140602;-77